sensor_id;sensor_type;location;lat;lon;timestamp;temperature;humidity
43099;DHT22;28715;51.988;6.020;2023-07-30T00:00:01;18.00;97.70
43099;DHT22;28715;51.988;6.020;2023-07-30T00:02:27;18.00;97.80
43099;DHT22;28715;51.988;6.020;2023-07-30T00:04:53;18.00;97.70
43099;DHT22;28715;51.988;6.020;2023-07-30T00:07:20;18.00;97.70
43099;DHT22;28715;51.988;6.020;2023-07-30T00:09:46;18.00;97.70
43099;DHT22;28715;51.988;6.020;2023-07-30T00:12:11;18.00;97.70
43099;DHT22;28715;51.988;6.020;2023-07-30T00:14:37;18.00;97.60
43099;DHT22;28715;51.988;6.020;2023-07-30T00:17:02;18.00;97.60
43099;DHT22;28715;51.988;6.020;2023-07-30T00:19:28;18.00;97.60
43099;DHT22;28715;51.988;6.020;2023-07-30T00:21:53;18.00;97.60
43099;DHT22;28715;51.988;6.020;2023-07-30T00:24:19;18.00;97.50
43099;DHT22;28715;51.988;6.020;2023-07-30T00:26:44;17.90;97.50
43099;DHT22;28715;51.988;6.020;2023-07-30T00:29:10;18.00;97.40
43099;DHT22;28715;51.988;6.020;2023-07-30T00:31:35;17.90;97.40
43099;DHT22;28715;51.988;6.020;2023-07-30T00:34:01;17.90;97.40
43099;DHT22;28715;51.988;6.020;2023-07-30T00:36:26;17.90;97.30
43099;DHT22;28715;51.988;6.020;2023-07-30T00:38:52;17.90;97.20
43099;DHT22;28715;51.988;6.020;2023-07-30T00:41:17;17.80;97.20
43099;DHT22;28715;51.988;6.020;2023-07-30T00:43:43;17.80;97.20
43099;DHT22;28715;51.988;6.020;2023-07-30T00:46:08;17.80;97.10
43099;DHT22;28715;51.988;6.020;2023-07-30T00:48:34;17.80;97.10
43099;DHT22;28715;51.988;6.020;2023-07-30T00:50:59;17.80;97.00
43099;DHT22;28715;51.988;6.020;2023-07-30T00:53:26;17.80;97.00
43099;DHT22;28715;51.988;6.020;2023-07-30T00:55:52;17.80;96.80
43099;DHT22;28715;51.988;6.020;2023-07-30T00:58:18;17.70;96.80
43099;DHT22;28715;51.988;6.020;2023-07-30T01:00:43;17.70;96.70
43099;DHT22;28715;51.988;6.020;2023-07-30T01:03:09;17.70;96.80
43099;DHT22;28715;51.988;6.020;2023-07-30T01:05:34;17.70;96.90
43099;DHT22;28715;51.988;6.020;2023-07-30T01:08:00;17.70;96.90
43099;DHT22;28715;51.988;6.020;2023-07-30T01:10:25;17.70;96.80
43099;DHT22;28715;51.988;6.020;2023-07-30T01:12:51;17.70;96.80
43099;DHT22;28715;51.988;6.020;2023-07-30T01:15:17;17.70;96.90
43099;DHT22;28715;51.988;6.020;2023-07-30T01:17:43;17.70;96.80
43099;DHT22;28715;51.988;6.020;2023-07-30T01:20:10;17.70;96.90
43099;DHT22;28715;51.988;6.020;2023-07-30T01:22:36;17.70;96.90
43099;DHT22;28715;51.988;6.020;2023-07-30T01:25:01;17.70;96.90
43099;DHT22;28715;51.988;6.020;2023-07-30T01:27:31;17.60;96.90
43099;DHT22;28715;51.988;6.020;2023-07-30T01:30:04;17.60;96.90
43099;DHT22;28715;51.988;6.020;2023-07-30T01:32:31;17.60;97.00
43099;DHT22;28715;51.988;6.020;2023-07-30T01:34:58;17.60;97.00
43099;DHT22;28715;51.988;6.020;2023-07-30T01:37:24;17.60;97.10
43099;DHT22;28715;51.988;6.020;2023-07-30T01:39:50;17.50;97.00
43099;DHT22;28715;51.988;6.020;2023-07-30T01:42:16;17.50;97.10
43099;DHT22;28715;51.988;6.020;2023-07-30T01:44:42;17.50;97.10
43099;DHT22;28715;51.988;6.020;2023-07-30T01:47:08;17.50;97.20
43099;DHT22;28715;51.988;6.020;2023-07-30T01:49:33;17.40;97.20
43099;DHT22;28715;51.988;6.020;2023-07-30T01:51:59;17.40;97.20
43099;DHT22;28715;51.988;6.020;2023-07-30T01:54:24;17.40;97.30
43099;DHT22;28715;51.988;6.020;2023-07-30T01:56:50;17.40;97.40
43099;DHT22;28715;51.988;6.020;2023-07-30T01:59:15;17.40;97.30
43099;DHT22;28715;51.988;6.020;2023-07-30T02:01:41;17.40;97.30
43099;DHT22;28715;51.988;6.020;2023-07-30T02:04:07;17.40;97.40
43099;DHT22;28715;51.988;6.020;2023-07-30T02:06:32;17.40;97.30
43099;DHT22;28715;51.988;6.020;2023-07-30T02:08:58;17.40;97.30
43099;DHT22;28715;51.988;6.020;2023-07-30T02:11:23;17.40;97.40
43099;DHT22;28715;51.988;6.020;2023-07-30T02:13:49;17.30;97.40
43099;DHT22;28715;51.988;6.020;2023-07-30T02:16:14;17.30;97.50
43099;DHT22;28715;51.988;6.020;2023-07-30T02:18:40;17.30;97.50
43099;DHT22;28715;51.988;6.020;2023-07-30T02:21:05;17.30;97.50
43099;DHT22;28715;51.988;6.020;2023-07-30T02:23:31;17.30;97.60
43099;DHT22;28715;51.988;6.020;2023-07-30T02:25:56;17.20;97.50
43099;DHT22;28715;51.988;6.020;2023-07-30T02:28:22;17.30;97.60
43099;DHT22;28715;51.988;6.020;2023-07-30T02:30:47;17.20;97.70
43099;DHT22;28715;51.988;6.020;2023-07-30T02:33:13;17.20;98.00
43099;DHT22;28715;51.988;6.020;2023-07-30T02:35:38;17.20;97.80
43099;DHT22;28715;51.988;6.020;2023-07-30T02:38:03;17.20;97.70
43099;DHT22;28715;51.988;6.020;2023-07-30T02:40:29;17.20;97.80
43099;DHT22;28715;51.988;6.020;2023-07-30T02:42:54;17.20;97.80
43099;DHT22;28715;51.988;6.020;2023-07-30T02:45:20;17.20;97.90
43099;DHT22;28715;51.988;6.020;2023-07-30T02:47:45;17.20;98.00
43099;DHT22;28715;51.988;6.020;2023-07-30T02:50:11;17.20;98.00
43099;DHT22;28715;51.988;6.020;2023-07-30T02:52:36;17.20;98.10
43099;DHT22;28715;51.988;6.020;2023-07-30T02:55:02;17.20;98.10
43099;DHT22;28715;51.988;6.020;2023-07-30T02:57:27;17.20;98.20
43099;DHT22;28715;51.988;6.020;2023-07-30T02:59:53;17.30;98.30
43099;DHT22;28715;51.988;6.020;2023-07-30T03:02:18;17.30;98.20
43099;DHT22;28715;51.988;6.020;2023-07-30T03:04:44;17.30;98.20
43099;DHT22;28715;51.988;6.020;2023-07-30T03:07:10;17.30;98.20
43099;DHT22;28715;51.988;6.020;2023-07-30T03:09:35;17.30;98.30
43099;DHT22;28715;51.988;6.020;2023-07-30T03:12:01;17.30;98.30
43099;DHT22;28715;51.988;6.020;2023-07-30T03:14:27;17.30;98.30
43099;DHT22;28715;51.988;6.020;2023-07-30T03:16:52;17.30;98.30
43099;DHT22;28715;51.988;6.020;2023-07-30T03:19:18;17.30;98.40
43099;DHT22;28715;51.988;6.020;2023-07-30T03:21:43;17.30;98.40
43099;DHT22;28715;51.988;6.020;2023-07-30T03:24:09;17.30;98.50
43099;DHT22;28715;51.988;6.020;2023-07-30T03:26:34;17.40;98.60
43099;DHT22;28715;51.988;6.020;2023-07-30T03:29:00;17.40;98.60
43099;DHT22;28715;51.988;6.020;2023-07-30T03:31:25;17.40;98.60
43099;DHT22;28715;51.988;6.020;2023-07-30T03:33:51;17.50;98.70
43099;DHT22;28715;51.988;6.020;2023-07-30T03:36:17;17.50;98.70
43099;DHT22;28715;51.988;6.020;2023-07-30T03:38:42;17.50;98.70
43099;DHT22;28715;51.988;6.020;2023-07-30T03:41:08;17.50;98.70
43099;DHT22;28715;51.988;6.020;2023-07-30T03:43:34;17.50;98.70
43099;DHT22;28715;51.988;6.020;2023-07-30T03:46:00;17.50;98.80
43099;DHT22;28715;51.988;6.020;2023-07-30T03:48:26;17.50;98.80
43099;DHT22;28715;51.988;6.020;2023-07-30T03:50:52;17.50;98.80
43099;DHT22;28715;51.988;6.020;2023-07-30T03:53:17;17.60;98.80
43099;DHT22;28715;51.988;6.020;2023-07-30T03:55:43;17.50;98.80
43099;DHT22;28715;51.988;6.020;2023-07-30T03:58:09;17.50;98.80
43099;DHT22;28715;51.988;6.020;2023-07-30T04:00:34;17.50;98.90
43099;DHT22;28715;51.988;6.020;2023-07-30T04:03:00;17.60;98.90
43099;DHT22;28715;51.988;6.020;2023-07-30T04:05:25;17.60;98.90
43099;DHT22;28715;51.988;6.020;2023-07-30T04:07:51;17.50;98.80
43099;DHT22;28715;51.988;6.020;2023-07-30T04:10:16;17.50;98.90
43099;DHT22;28715;51.988;6.020;2023-07-30T04:12:42;17.60;98.90
43099;DHT22;28715;51.988;6.020;2023-07-30T04:15:07;17.50;98.90
43099;DHT22;28715;51.988;6.020;2023-07-30T04:17:34;17.40;99.00
43099;DHT22;28715;51.988;6.020;2023-07-30T04:20:00;17.50;99.20
43099;DHT22;28715;51.988;6.020;2023-07-30T04:22:25;17.50;99.20
43099;DHT22;28715;51.988;6.020;2023-07-30T04:24:51;17.50;99.30
43099;DHT22;28715;51.988;6.020;2023-07-30T04:27:16;17.50;99.40
43099;DHT22;28715;51.988;6.020;2023-07-30T04:29:42;17.40;99.40
43099;DHT22;28715;51.988;6.020;2023-07-30T04:32:07;17.40;99.50
43099;DHT22;28715;51.988;6.020;2023-07-30T04:34:33;17.50;99.80
43099;DHT22;28715;51.988;6.020;2023-07-30T04:36:58;17.40;99.60
43099;DHT22;28715;51.988;6.020;2023-07-30T04:39:24;17.50;99.70
43099;DHT22;28715;51.988;6.020;2023-07-30T04:41:49;17.50;99.70
43099;DHT22;28715;51.988;6.020;2023-07-30T04:44:14;17.60;99.70
43099;DHT22;28715;51.988;6.020;2023-07-30T04:46:40;17.50;99.80
43099;DHT22;28715;51.988;6.020;2023-07-30T04:49:06;17.60;99.90
43099;DHT22;28715;51.988;6.020;2023-07-30T04:51:31;17.60;99.90
43099;DHT22;28715;51.988;6.020;2023-07-30T04:53:56;17.70;99.90
43099;DHT22;28715;51.988;6.020;2023-07-30T04:56:22;17.70;99.90
43099;DHT22;28715;51.988;6.020;2023-07-30T04:58:48;17.70;99.90
43099;DHT22;28715;51.988;6.020;2023-07-30T05:01:13;17.80;99.90
43099;DHT22;28715;51.988;6.020;2023-07-30T05:03:39;17.80;99.90
43099;DHT22;28715;51.988;6.020;2023-07-30T05:06:04;17.80;99.90
43099;DHT22;28715;51.988;6.020;2023-07-30T05:08:30;17.80;99.90
43099;DHT22;28715;51.988;6.020;2023-07-30T05:10:55;17.90;99.90
43099;DHT22;28715;51.988;6.020;2023-07-30T05:13:21;17.90;99.90
43099;DHT22;28715;51.988;6.020;2023-07-30T05:15:46;17.90;99.90
43099;DHT22;28715;51.988;6.020;2023-07-30T05:18:12;17.90;99.90
43099;DHT22;28715;51.988;6.020;2023-07-30T05:20:38;17.90;99.90
43099;DHT22;28715;51.988;6.020;2023-07-30T05:23:04;18.00;99.90
43099;DHT22;28715;51.988;6.020;2023-07-30T05:25:29;18.00;99.90
43099;DHT22;28715;51.988;6.020;2023-07-30T05:27:55;18.00;99.90
43099;DHT22;28715;51.988;6.020;2023-07-30T05:30:20;18.00;99.90
43099;DHT22;28715;51.988;6.020;2023-07-30T05:32:46;18.10;99.90
43099;DHT22;28715;51.988;6.020;2023-07-30T05:35:11;18.10;99.90
43099;DHT22;28715;51.988;6.020;2023-07-30T05:37:37;18.10;99.90
43099;DHT22;28715;51.988;6.020;2023-07-30T05:40:02;18.10;99.90
43099;DHT22;28715;51.988;6.020;2023-07-30T05:42:28;18.10;99.90
43099;DHT22;28715;51.988;6.020;2023-07-30T05:44:53;18.20;99.90
43099;DHT22;28715;51.988;6.020;2023-07-30T05:47:19;18.20;99.90
43099;DHT22;28715;51.988;6.020;2023-07-30T05:49:44;18.30;99.80
43099;DHT22;28715;51.988;6.020;2023-07-30T05:52:10;18.30;99.90
43099;DHT22;28715;51.988;6.020;2023-07-30T05:54:35;18.30;99.70
43099;DHT22;28715;51.988;6.020;2023-07-30T05:57:01;18.40;99.70
43099;DHT22;28715;51.988;6.020;2023-07-30T05:59:26;18.40;99.70
43099;DHT22;28715;51.988;6.020;2023-07-30T06:01:52;18.40;99.80
43099;DHT22;28715;51.988;6.020;2023-07-30T06:04:17;18.50;99.70
43099;DHT22;28715;51.988;6.020;2023-07-30T06:06:43;18.50;99.70
43099;DHT22;28715;51.988;6.020;2023-07-30T06:09:08;18.50;99.60
43099;DHT22;28715;51.988;6.020;2023-07-30T06:11:34;18.50;99.60
43099;DHT22;28715;51.988;6.020;2023-07-30T06:13:59;18.50;99.60
43099;DHT22;28715;51.988;6.020;2023-07-30T06:16:24;18.50;99.60
43099;DHT22;28715;51.988;6.020;2023-07-30T06:18:50;18.60;99.70
43099;DHT22;28715;51.988;6.020;2023-07-30T06:21:15;18.70;99.60
43099;DHT22;28715;51.988;6.020;2023-07-30T06:23:41;18.70;99.40
43099;DHT22;28715;51.988;6.020;2023-07-30T06:26:06;18.70;99.40
43099;DHT22;28715;51.988;6.020;2023-07-30T06:28:32;18.70;99.50
43099;DHT22;28715;51.988;6.020;2023-07-30T06:31:01;18.70;99.40
43099;DHT22;28715;51.988;6.020;2023-07-30T06:33:26;18.70;99.40
43099;DHT22;28715;51.988;6.020;2023-07-30T06:35:52;18.80;99.40
43099;DHT22;28715;51.988;6.020;2023-07-30T06:38:17;18.80;99.30
43099;DHT22;28715;51.988;6.020;2023-07-30T06:40:43;18.80;99.30
43099;DHT22;28715;51.988;6.020;2023-07-30T06:43:08;18.80;99.20
43099;DHT22;28715;51.988;6.020;2023-07-30T06:45:34;18.90;99.20
43099;DHT22;28715;51.988;6.020;2023-07-30T06:47:59;18.90;99.20
43099;DHT22;28715;51.988;6.020;2023-07-30T06:50:25;19.00;99.20
43099;DHT22;28715;51.988;6.020;2023-07-30T06:52:50;19.00;99.20
43099;DHT22;28715;51.988;6.020;2023-07-30T06:55:16;19.10;99.00
43099;DHT22;28715;51.988;6.020;2023-07-30T06:57:41;19.10;99.00
43099;DHT22;28715;51.988;6.020;2023-07-30T07:00:07;19.20;99.00
43099;DHT22;28715;51.988;6.020;2023-07-30T07:02:32;19.20;98.80
43099;DHT22;28715;51.988;6.020;2023-07-30T07:04:58;19.30;98.80
43099;DHT22;28715;51.988;6.020;2023-07-30T07:07:23;19.30;98.80
43099;DHT22;28715;51.988;6.020;2023-07-30T07:09:49;19.30;98.60
43099;DHT22;28715;51.988;6.020;2023-07-30T07:12:14;19.30;98.50
43099;DHT22;28715;51.988;6.020;2023-07-30T07:14:40;19.30;98.30
43099;DHT22;28715;51.988;6.020;2023-07-30T07:17:07;19.30;98.30
43099;DHT22;28715;51.988;6.020;2023-07-30T07:19:33;19.30;98.70
43099;DHT22;28715;51.988;6.020;2023-07-30T07:22:04;19.40;98.60
43099;DHT22;28715;51.988;6.020;2023-07-30T07:24:30;19.50;98.40
43099;DHT22;28715;51.988;6.020;2023-07-30T07:26:56;19.50;98.30
43099;DHT22;28715;51.988;6.020;2023-07-30T07:29:22;19.50;98.40
43099;DHT22;28715;51.988;6.020;2023-07-30T07:31:47;19.70;98.20
43099;DHT22;28715;51.988;6.020;2023-07-30T07:34:13;19.70;98.00
43099;DHT22;28715;51.988;6.020;2023-07-30T07:36:38;19.80;97.90
43099;DHT22;28715;51.988;6.020;2023-07-30T07:39:04;19.90;97.90
43099;DHT22;28715;51.988;6.020;2023-07-30T07:41:29;19.90;97.70
43099;DHT22;28715;51.988;6.020;2023-07-30T07:43:55;20.00;97.50
43099;DHT22;28715;51.988;6.020;2023-07-30T07:46:21;20.00;97.30
43099;DHT22;28715;51.988;6.020;2023-07-30T07:48:46;20.00;97.20
43099;DHT22;28715;51.988;6.020;2023-07-30T07:51:12;20.10;97.50
43099;DHT22;28715;51.988;6.020;2023-07-30T07:53:37;20.40;97.70
43099;DHT22;28715;51.988;6.020;2023-07-30T07:56:03;20.70;96.90
43099;DHT22;28715;51.988;6.020;2023-07-30T07:58:28;21.00;96.40
43099;DHT22;28715;51.988;6.020;2023-07-30T08:00:58;21.10;95.50
43099;DHT22;28715;51.988;6.020;2023-07-30T08:03:23;21.00;95.00
43099;DHT22;28715;51.988;6.020;2023-07-30T08:05:49;20.80;94.90
43099;DHT22;28715;51.988;6.020;2023-07-30T08:08:15;20.60;94.80
43099;DHT22;28715;51.988;6.020;2023-07-30T08:10:41;20.50;95.30
43099;DHT22;28715;51.988;6.020;2023-07-30T08:13:12;20.40;95.40
43099;DHT22;28715;51.988;6.020;2023-07-30T08:15:37;20.30;95.80
43099;DHT22;28715;51.988;6.020;2023-07-30T08:18:03;20.30;95.70
43099;DHT22;28715;51.988;6.020;2023-07-30T08:20:28;20.30;95.90
43099;DHT22;28715;51.988;6.020;2023-07-30T08:22:54;20.30;96.20
43099;DHT22;28715;51.988;6.020;2023-07-30T08:25:20;20.30;96.10
43099;DHT22;28715;51.988;6.020;2023-07-30T08:27:45;20.30;96.10
43099;DHT22;28715;51.988;6.020;2023-07-30T08:30:11;20.30;96.30
43099;DHT22;28715;51.988;6.020;2023-07-30T08:32:37;20.50;96.10
43099;DHT22;28715;51.988;6.020;2023-07-30T08:35:03;20.50;96.00
43099;DHT22;28715;51.988;6.020;2023-07-30T08:37:28;20.60;95.90
43099;DHT22;28715;51.988;6.020;2023-07-30T08:39:54;20.70;95.80
43099;DHT22;28715;51.988;6.020;2023-07-30T08:42:19;20.70;95.30
43099;DHT22;28715;51.988;6.020;2023-07-30T08:44:45;20.70;95.10
43099;DHT22;28715;51.988;6.020;2023-07-30T08:47:10;20.70;95.10
43099;DHT22;28715;51.988;6.020;2023-07-30T08:49:36;20.70;95.10
43099;DHT22;28715;51.988;6.020;2023-07-30T08:52:02;20.70;95.10
43099;DHT22;28715;51.988;6.020;2023-07-30T08:54:29;20.80;95.40
43099;DHT22;28715;51.988;6.020;2023-07-30T08:56:54;20.80;95.00
43099;DHT22;28715;51.988;6.020;2023-07-30T08:59:20;20.90;95.20
43099;DHT22;28715;51.988;6.020;2023-07-30T09:01:47;21.00;95.50
43099;DHT22;28715;51.988;6.020;2023-07-30T09:04:16;21.20;95.40
43099;DHT22;28715;51.988;6.020;2023-07-30T09:06:42;21.40;95.00
43099;DHT22;28715;51.988;6.020;2023-07-30T09:09:09;21.40;94.10
43099;DHT22;28715;51.988;6.020;2023-07-30T09:11:35;21.30;93.90
43099;DHT22;28715;51.988;6.020;2023-07-30T09:14:01;21.20;94.00
43099;DHT22;28715;51.988;6.020;2023-07-30T09:16:27;21.20;94.00
43099;DHT22;28715;51.988;6.020;2023-07-30T09:18:52;21.10;94.30
43099;DHT22;28715;51.988;6.020;2023-07-30T09:21:19;21.00;94.20
43099;DHT22;28715;51.988;6.020;2023-07-30T09:23:45;21.00;94.40
43099;DHT22;28715;51.988;6.020;2023-07-30T09:26:11;21.00;94.40
43099;DHT22;28715;51.988;6.020;2023-07-30T09:28:37;20.90;94.60
43099;DHT22;28715;51.988;6.020;2023-07-30T09:31:07;20.90;94.50
43099;DHT22;28715;51.988;6.020;2023-07-30T09:33:33;20.90;94.70
43099;DHT22;28715;51.988;6.020;2023-07-30T09:36:02;20.90;94.20
43099;DHT22;28715;51.988;6.020;2023-07-30T09:38:28;21.00;94.60
43099;DHT22;28715;51.988;6.020;2023-07-30T09:41:02;21.10;94.60
43099;DHT22;28715;51.988;6.020;2023-07-30T09:43:28;21.30;94.10
43099;DHT22;28715;51.988;6.020;2023-07-30T09:45:53;21.30;93.70
43099;DHT22;28715;51.988;6.020;2023-07-30T09:48:25;21.50;93.80
43099;DHT22;28715;51.988;6.020;2023-07-30T09:50:51;21.70;93.60
43099;DHT22;28715;51.988;6.020;2023-07-30T09:53:17;22.10;94.10
43099;DHT22;28715;51.988;6.020;2023-07-30T09:55:42;22.50;93.40
43099;DHT22;28715;51.988;6.020;2023-07-30T09:58:08;22.70;92.50
43099;DHT22;28715;51.988;6.020;2023-07-30T10:00:36;22.80;91.50
43099;DHT22;28715;51.988;6.020;2023-07-30T10:03:02;22.80;91.40
43099;DHT22;28715;51.988;6.020;2023-07-30T10:05:29;22.80;91.50
43099;DHT22;28715;51.988;6.020;2023-07-30T10:10:23;22.70;91.00
43099;DHT22;28715;51.988;6.020;2023-07-30T10:12:49;22.60;91.20
43099;DHT22;28715;51.988;6.020;2023-07-30T10:15:18;22.50;91.20
43099;DHT22;28715;51.988;6.020;2023-07-30T10:17:44;22.30;91.50
43099;DHT22;28715;51.988;6.020;2023-07-30T10:20:19;22.10;91.50
43099;DHT22;28715;51.988;6.020;2023-07-30T10:22:45;22.00;92.10
43099;DHT22;28715;51.988;6.020;2023-07-30T10:25:12;21.70;92.00
43099;DHT22;28715;51.988;6.020;2023-07-30T10:27:39;21.50;92.40
43099;DHT22;28715;51.988;6.020;2023-07-30T10:30:08;21.30;92.50
43099;DHT22;28715;51.988;6.020;2023-07-30T10:32:38;21.10;92.70
43099;DHT22;28715;51.988;6.020;2023-07-30T10:35:03;21.00;92.90
43099;DHT22;28715;51.988;6.020;2023-07-30T10:37:29;20.90;92.80
43099;DHT22;28715;51.988;6.020;2023-07-30T10:39:54;20.90;93.30
43099;DHT22;28715;51.988;6.020;2023-07-30T10:42:20;21.00;93.10
43099;DHT22;28715;51.988;6.020;2023-07-30T10:44:46;21.00;92.80
43099;DHT22;28715;51.988;6.020;2023-07-30T10:47:11;21.10;93.00
43099;DHT22;28715;51.988;6.020;2023-07-30T10:49:37;21.20;93.30
43099;DHT22;28715;51.988;6.020;2023-07-30T10:52:03;21.30;92.80
43099;DHT22;28715;51.988;6.020;2023-07-30T10:54:35;21.40;92.40
43099;DHT22;28715;51.988;6.020;2023-07-30T10:57:01;21.40;91.80
43099;DHT22;28715;51.988;6.020;2023-07-30T10:59:32;21.50;92.20
43099;DHT22;28715;51.988;6.020;2023-07-30T11:01:58;21.60;92.00
43099;DHT22;28715;51.988;6.020;2023-07-30T11:04:23;21.60;90.90
43099;DHT22;28715;51.988;6.020;2023-07-30T11:06:49;21.70;91.30
43099;DHT22;28715;51.988;6.020;2023-07-30T11:11:44;21.70;91.30
43099;DHT22;28715;51.988;6.020;2023-07-30T11:14:14;21.80;92.10
43099;DHT22;28715;51.988;6.020;2023-07-30T11:16:46;21.90;92.60
43099;DHT22;28715;51.988;6.020;2023-07-30T11:19:12;22.10;92.10
43099;DHT22;28715;51.988;6.020;2023-07-30T11:21:44;22.40;92.30
43099;DHT22;28715;51.988;6.020;2023-07-30T11:24:09;22.70;92.10
43099;DHT22;28715;51.988;6.020;2023-07-30T11:26:35;22.80;90.90
43099;DHT22;28715;51.988;6.020;2023-07-30T11:29:00;22.80;91.30
43099;DHT22;28715;51.988;6.020;2023-07-30T11:31:26;22.90;91.30
43099;DHT22;28715;51.988;6.020;2023-07-30T11:33:52;22.90;91.00
43099;DHT22;28715;51.988;6.020;2023-07-30T11:36:18;22.80;91.10
43099;DHT22;28715;51.988;6.020;2023-07-30T11:38:44;22.80;91.10
43099;DHT22;28715;51.988;6.020;2023-07-30T11:41:10;22.80;91.30
43099;DHT22;28715;51.988;6.020;2023-07-30T11:43:41;23.00;92.00
43099;DHT22;28715;51.988;6.020;2023-07-30T11:46:07;23.20;90.90
43099;DHT22;28715;51.988;6.020;2023-07-30T11:48:33;23.40;91.00
43099;DHT22;28715;51.988;6.020;2023-07-30T11:50:58;23.60;90.80
43099;DHT22;28715;51.988;6.020;2023-07-30T11:53:43;23.70;90.40
43099;DHT22;28715;51.988;6.020;2023-07-30T11:56:19;23.80;90.40
43099;DHT22;28715;51.988;6.020;2023-07-30T11:58:53;23.90;89.40
43099;DHT22;28715;51.988;6.020;2023-07-30T12:01:19;23.80;88.10
43099;DHT22;28715;51.988;6.020;2023-07-30T12:03:44;23.70;86.10
43099;DHT22;28715;51.988;6.020;2023-07-30T12:06:10;23.50;87.00
43099;DHT22;28715;51.988;6.020;2023-07-30T12:08:36;23.40;87.40
43099;DHT22;28715;51.988;6.020;2023-07-30T12:11:03;23.40;87.90
43099;DHT22;28715;51.988;6.020;2023-07-30T12:13:41;23.30;88.50
43099;DHT22;28715;51.988;6.020;2023-07-30T12:16:15;23.30;89.30
43099;DHT22;28715;51.988;6.020;2023-07-30T12:18:44;23.10;86.90
43099;DHT22;28715;51.988;6.020;2023-07-30T12:21:09;23.00;88.50
43099;DHT22;28715;51.988;6.020;2023-07-30T12:23:36;23.10;90.10
43099;DHT22;28715;51.988;6.020;2023-07-30T12:26:02;23.30;90.30
43099;DHT22;28715;51.988;6.020;2023-07-30T12:28:30;23.50;89.90
43099;DHT22;28715;51.988;6.020;2023-07-30T12:30:56;23.70;87.70
43099;DHT22;28715;51.988;6.020;2023-07-30T12:33:21;23.80;86.10
43099;DHT22;28715;51.988;6.020;2023-07-30T12:35:47;23.70;87.20
43099;DHT22;28715;51.988;6.020;2023-07-30T12:38:15;23.60;86.20
43099;DHT22;28715;51.988;6.020;2023-07-30T12:40:41;23.60;87.10
43099;DHT22;28715;51.988;6.020;2023-07-30T12:43:06;23.40;85.80
43099;DHT22;28715;51.988;6.020;2023-07-30T12:45:32;23.40;87.10
43099;DHT22;28715;51.988;6.020;2023-07-30T12:47:58;23.30;87.20
43099;DHT22;28715;51.988;6.020;2023-07-30T12:50:23;23.40;87.90
43099;DHT22;28715;51.988;6.020;2023-07-30T12:52:49;23.50;86.30
43099;DHT22;28715;51.988;6.020;2023-07-30T12:55:14;23.60;86.00
43099;DHT22;28715;51.988;6.020;2023-07-30T12:57:40;23.70;86.00
43099;DHT22;28715;51.988;6.020;2023-07-30T13:00:05;23.70;83.30
43099;DHT22;28715;51.988;6.020;2023-07-30T13:02:31;23.80;85.20
43099;DHT22;28715;51.988;6.020;2023-07-30T13:05:02;24.00;84.30
43099;DHT22;28715;51.988;6.020;2023-07-30T13:07:29;24.10;84.70
43099;DHT22;28715;51.988;6.020;2023-07-30T13:10:28;24.10;82.50
43099;DHT22;28715;51.988;6.020;2023-07-30T13:12:46;24.00;83.30
43099;DHT22;28715;51.988;6.020;2023-07-30T13:15:12;24.10;83.40
43099;DHT22;28715;51.988;6.020;2023-07-30T13:17:37;24.20;82.40
43099;DHT22;28715;51.988;6.020;2023-07-30T13:20:04;24.30;83.00
43099;DHT22;28715;51.988;6.020;2023-07-30T13:22:30;24.50;82.70
43099;DHT22;28715;51.988;6.020;2023-07-30T13:24:55;24.50;80.50
43099;DHT22;28715;51.988;6.020;2023-07-30T13:27:23;24.30;79.40
43099;DHT22;28715;51.988;6.020;2023-07-30T13:29:48;24.10;80.60
43099;DHT22;28715;51.988;6.020;2023-07-30T13:32:14;23.90;81.70
43099;DHT22;28715;51.988;6.020;2023-07-30T13:34:40;23.80;82.10
43099;DHT22;28715;51.988;6.020;2023-07-30T13:37:06;23.70;82.60
43099;DHT22;28715;51.988;6.020;2023-07-30T13:39:31;23.70;82.30
43099;DHT22;28715;51.988;6.020;2023-07-30T13:41:57;23.60;82.10
43099;DHT22;28715;51.988;6.020;2023-07-30T13:44:22;23.50;83.00
43099;DHT22;28715;51.988;6.020;2023-07-30T13:46:48;23.40;83.30
43099;DHT22;28715;51.988;6.020;2023-07-30T13:49:13;23.40;83.40
43099;DHT22;28715;51.988;6.020;2023-07-30T13:51:39;23.60;83.90
43099;DHT22;28715;51.988;6.020;2023-07-30T13:54:04;23.80;82.70
43099;DHT22;28715;51.988;6.020;2023-07-30T13:56:33;24.00;83.00
43099;DHT22;28715;51.988;6.020;2023-07-30T13:58:58;24.10;81.50
43099;DHT22;28715;51.988;6.020;2023-07-30T14:01:24;24.30;81.40
43099;DHT22;28715;51.988;6.020;2023-07-30T14:03:50;24.30;78.60
43099;DHT22;28715;51.988;6.020;2023-07-30T14:06:15;24.30;77.50
43099;DHT22;28715;51.988;6.020;2023-07-30T14:08:40;24.30;76.40
43099;DHT22;28715;51.988;6.020;2023-07-30T14:11:06;24.20;77.70
43099;DHT22;28715;51.988;6.020;2023-07-30T14:13:31;24.30;77.70
43099;DHT22;28715;51.988;6.020;2023-07-30T14:15:59;24.50;78.50
43099;DHT22;28715;51.988;6.020;2023-07-30T14:18:27;24.50;77.20
43099;DHT22;28715;51.988;6.020;2023-07-30T14:20:53;24.60;76.30
43099;DHT22;28715;51.988;6.020;2023-07-30T14:23:21;24.60;75.70
43099;DHT22;28715;51.988;6.020;2023-07-30T14:25:47;24.60;76.00
43099;DHT22;28715;51.988;6.020;2023-07-30T14:28:12;24.50;75.80
43099;DHT22;28715;51.988;6.020;2023-07-30T14:30:40;24.40;76.30
43099;DHT22;28715;51.988;6.020;2023-07-30T14:33:09;24.30;77.60
43099;DHT22;28715;51.988;6.020;2023-07-30T14:35:35;24.20;77.10
43099;DHT22;28715;51.988;6.020;2023-07-30T14:38:03;24.10;77.90
43099;DHT22;28715;51.988;6.020;2023-07-30T14:40:29;24.00;78.00
43099;DHT22;28715;51.988;6.020;2023-07-30T14:42:55;23.80;77.80
43099;DHT22;28715;51.988;6.020;2023-07-30T14:45:20;23.70;78.90
43099;DHT22;28715;51.988;6.020;2023-07-30T14:47:46;23.60;79.10
43099;DHT22;28715;51.988;6.020;2023-07-30T14:50:12;23.60;79.00
43099;DHT22;28715;51.988;6.020;2023-07-30T14:52:40;23.60;79.50
43099;DHT22;28715;51.988;6.020;2023-07-30T14:55:11;23.80;80.50
43099;DHT22;28715;51.988;6.020;2023-07-30T14:57:36;23.90;78.80
43099;DHT22;28715;51.988;6.020;2023-07-30T15:00:02;23.80;77.30
43099;DHT22;28715;51.988;6.020;2023-07-30T15:02:28;23.80;78.40
43099;DHT22;28715;51.988;6.020;2023-07-30T15:04:54;23.70;78.50
43099;DHT22;28715;51.988;6.020;2023-07-30T15:07:20;23.70;78.80
43099;DHT22;28715;51.988;6.020;2023-07-30T15:09:45;23.70;79.20
43099;DHT22;28715;51.988;6.020;2023-07-30T15:12:12;23.80;79.10
43099;DHT22;28715;51.988;6.020;2023-07-30T15:14:40;23.80;78.00
43099;DHT22;28715;51.988;6.020;2023-07-30T15:17:08;23.90;78.70
43099;DHT22;28715;51.988;6.020;2023-07-30T15:19:34;23.90;78.00
43099;DHT22;28715;51.988;6.020;2023-07-30T15:21:59;23.90;78.50
43099;DHT22;28715;51.988;6.020;2023-07-30T15:24:26;23.90;78.60
43099;DHT22;28715;51.988;6.020;2023-07-30T15:26:51;23.70;79.40